Time;durP1;ratioP1;P1;durP2;ratioP2;P2;SDS_P1;SDS_P2;PMS_P1;PMS_P2;Temp;Humidity;BMP_temperature;BMP_pressure;BME280_temperature;BME280_humidity;BME280_pressure;Samples;Min_cycle;Max_cycle;Signal;HPM_P1;HPM_P2
2024/02/18 00:00:04;;;;;;;8.43;4.32;;;;;;;;;;5024941;28;20041;-64
2024/02/18 00:02:35;;;;;;;11.18;4.45;;;;;;;;;;5028292;28;20026;-63
2024/02/18 00:05:04;;;;;;;7.97;5.22;;;;;;;;;;5030627;28;20520;-61
2024/02/18 00:07:30;;;;;;;6.95;4.53;;;;;;;;;;5038369;28;20049;-60
2024/02/18 00:09:56;;;;;;;5.57;3.95;;;;;;;;;;5037500;28;20030;-61
2024/02/18 00:12:24;;;;;;;7.35;4.53;;;;;;;;;;5037314;28;20044;-63
2024/02/18 00:14:51;;;;;;;6.82;4.20;;;;;;;;;;5039256;28;20063;-62
2024/02/18 00:17:17;;;;;;;7.55;4.57;;;;;;;;;;5028044;28;20060;-62
2024/02/18 00:19:44;;;;;;;7.70;4.30;;;;;;;;;;5031665;28;20042;-62
2024/02/18 00:22:10;;;;;;;8.90;4.13;;;;;;;;;;5036652;28;20037;-62
2024/02/18 00:24:36;;;;;;;5.53;4.07;;;;;;;;;;5039263;28;20045;-61
2024/02/18 00:27:03;;;;;;;6.63;4.32;;;;;;;;;;5040161;28;20616;-62
2024/02/18 00:29:29;;;;;;;5.82;3.92;;;;;;;;;;5037545;28;20067;-62
2024/02/18 00:31:55;;;;;;;10.40;3.97;;;;;;;;;;5036740;28;20033;-61
2024/02/18 00:34:22;;;;;;;6.72;4.07;;;;;;;;;;5032420;28;20033;-61
2024/02/18 00:36:48;;;;;;;7.38;3.38;;;;;;;;;;5039923;28;20408;-62
2024/02/18 00:39:15;;;;;;;6.70;3.88;;;;;;;;;;5034699;28;20052;-61
2024/02/18 00:41:42;;;;;;;8.52;4.28;;;;;;;;;;5036931;28;20057;-62
2024/02/18 00:44:09;;;;;;;7.10;3.67;;;;;;;;;;5043628;28;20037;-62
2024/02/18 00:46:35;;;;;;;8.13;4.00;;;;;;;;;;5042626;28;20025;-61
2024/02/18 00:49:01;;;;;;;10.45;4.25;;;;;;;;;;5041890;28;20040;-62
2024/02/18 00:51:27;;;;;;;6.55;3.80;;;;;;;;;;5033801;28;20053;-61
2024/02/18 00:53:53;;;;;;;7.25;4.15;;;;;;;;;;5032717;28;20029;-62
2024/02/18 00:56:20;;;;;;;6.93;3.40;;;;;;;;;;5037285;28;20045;-61
2024/02/18 00:58:48;;;;;;;5.75;3.28;;;;;;;;;;5033782;28;20124;-62
2024/02/18 01:01:14;;;;;;;4.43;3.03;;;;;;;;;;5033863;28;20404;-62
2024/02/18 01:03:40;;;;;;;4.57;2.97;;;;;;;;;;5033459;28;20151;-62
2024/02/18 01:06:06;;;;;;;6.00;2.83;;;;;;;;;;5040682;28;20033;-62
2024/02/18 01:08:33;;;;;;;5.45;2.70;;;;;;;;;;5042047;28;20104;-61
2024/02/18 01:10:59;;;;;;;5.78;3.22;;;;;;;;;;5032277;28;20053;-61
2024/02/18 01:13:25;;;;;;;3.58;2.40;;;;;;;;;;5014550;28;20056;-62
2024/02/18 01:15:51;;;;;;;5.68;2.97;;;;;;;;;;5035588;28;20033;-61
2024/02/18 01:18:17;;;;;;;4.82;3.08;;;;;;;;;;5035518;28;20039;-61
2024/02/18 01:20:43;;;;;;;4.95;3.13;;;;;;;;;;5037601;28;20052;-61
2024/02/18 01:23:10;;;;;;;6.85;3.78;;;;;;;;;;5042996;28;20761;-61
2024/02/18 01:25:36;;;;;;;8.07;4.45;;;;;;;;;;5041988;28;20052;-61
2024/02/18 01:28:03;;;;;;;8.93;4.72;;;;;;;;;;5040399;28;20036;-61
2024/02/18 01:30:29;;;;;;;10.93;5.20;;;;;;;;;;5061519;28;20041;-61
2024/02/18 01:32:55;;;;;;;10.05;5.32;;;;;;;;;;5033184;28;20404;-62
2024/02/18 01:35:22;;;;;;;9.98;5.53;;;;;;;;;;5037299;28;20655;-62
2024/02/18 01:37:48;;;;;;;8.43;4.65;;;;;;;;;;5038585;28;20044;-61
2024/02/18 01:40:14;;;;;;;7.07;4.63;;;;;;;;;;5036733;28;20039;-61
2024/02/18 01:42:40;;;;;;;7.07;4.07;;;;;;;;;;5038276;28;20060;-61
2024/02/18 01:45:08;;;;;;;8.50;4.45;;;;;;;;;;5041224;28;20036;-62
2024/02/18 01:47:36;;;;;;;10.57;5.13;;;;;;;;;;5038137;28;20397;-61
2024/02/18 01:50:04;;;;;;;10.45;4.50;;;;;;;;;;5034437;28;20041;-62
2024/02/18 01:52:30;;;;;;;9.77;4.63;;;;;;;;;;5035409;28;20030;-61
2024/02/18 01:54:57;;;;;;;9.05;5.18;;;;;;;;;;5030907;28;20041;-61
2024/02/18 01:57:27;;;;;;;8.85;4.90;;;;;;;;;;5036312;28;20049;-61
2024/02/18 01:59:57;;;;;;;11.07;5.25;;;;;;;;;;5038150;28;20040;-61
2024/02/18 02:02:24;;;;;;;9.27;5.00;;;;;;;;;;5038338;28;20048;-62
2024/02/18 02:04:51;;;;;;;7.55;4.28;;;;;;;;;;5039087;28;20427;-62
2024/02/18 02:07:18;;;;;;;8.45;4.43;;;;;;;;;;5036348;28;20037;-61
2024/02/18 02:09:45;;;;;;;6.30;4.60;;;;;;;;;;5035880;28;20125;-62
2024/02/18 02:12:11;;;;;;;10.20;5.35;;;;;;;;;;5033009;28;20052;-61
2024/02/18 02:14:37;;;;;;;7.75;4.13;;;;;;;;;;5035145;28;20048;-61
2024/02/18 02:17:05;;;;;;;8.02;5.25;;;;;;;;;;5034600;28;20132;-61
2024/02/18 02:19:31;;;;;;;8.32;5.07;;;;;;;;;;5035742;28;20029;-61
2024/02/18 02:21:57;;;;;;;9.63;5.40;;;;;;;;;;5038079;28;20037;-62
2024/02/18 02:24:23;;;;;;;8.18;4.53;;;;;;;;;;5035288;28;20037;-61
2024/02/18 02:26:53;;;;;;;8.15;5.28;;;;;;;;;;5046312;28;20456;-64
2024/02/18 02:29:19;;;;;;;;;;;;;;;;;;5041958;28;20032;-61
2024/02/18 02:31:45;;;;;;;7.93;4.70;;;;;;;;;;5041904;28;19917;-63
2024/02/18 02:34:12;;;;;;;9.65;4.97;;;;;;;;;;5043703;28;20043;-62
2024/02/18 02:36:39;;;;;;;10.75;6.53;;;;;;;;;;5035529;28;20049;-63
2024/02/18 02:39:05;;;;;;;9.07;6.03;;;;;;;;;;5031558;28;20045;-64
2024/02/18 02:41:32;;;;;;;11.05;6.30;;;;;;;;;;5039622;28;20409;-61
2024/02/18 02:43:58;;;;;;;9.27;5.65;;;;;;;;;;5041161;28;20676;-62
2024/02/18 02:46:24;;;;;;;7.88;4.85;;;;;;;;;;5041440;28;20041;-61
2024/02/18 02:48:50;;;;;;;6.80;4.55;;;;;;;;;;5043496;28;20048;-61
2024/02/18 02:51:17;;;;;;;5.93;4.53;;;;;;;;;;5038585;28;20037;-62
2024/02/18 02:53:43;;;;;;;6.90;4.28;;;;;;;;;;5044625;28;20033;-62
2024/02/18 02:56:09;;;;;;;7.63;4.38;;;;;;;;;;5038286;28;20041;-62
2024/02/18 02:58:35;;;;;;;7.85;4.38;;;;;;;;;;5040652;28;20036;-61
2024/02/18 03:01:02;;;;;;;7.90;4.68;;;;;;;;;;5038920;28;20040;-61
2024/02/18 03:03:28;;;;;;;6.40;3.90;;;;;;;;;;5040714;28;20041;-61
2024/02/18 03:05:54;;;;;;;6.53;4.32;;;;;;;;;;5046222;28;20041;-61
2024/02/18 03:08:21;;;;;;;8.20;4.47;;;;;;;;;;5036360;28;20412;-62
2024/02/18 03:10:47;;;;;;;6.88;4.38;;;;;;;;;;5034315;28;20041;-61
2024/02/18 03:13:13;;;;;;;5.53;3.95;;;;;;;;;;5035611;28;20068;-61
2024/02/18 03:15:39;;;;;;;8.15;4.28;;;;;;;;;;5040941;28;20060;-61
2024/02/18 03:18:05;;;;;;;7.75;3.95;;;;;;;;;;5039728;28;20033;-62
2024/02/18 03:20:34;;;;;;;7.63;4.43;;;;;;;;;;5034903;28;20381;-61
2024/02/18 03:23:01;;;;;;;6.75;4.07;;;;;;;;;;5041649;28;20048;-60
2024/02/18 03:25:27;;;;;;;7.65;4.00;;;;;;;;;;5035918;28;20044;-63
2024/02/18 03:27:53;;;;;;;7.25;4.15;;;;;;;;;;5041587;28;20121;-62
2024/02/18 03:30:20;;;;;;;8.18;4.30;;;;;;;;;;5035830;28;20041;-62
2024/02/18 03:32:46;;;;;;;7.32;3.97;;;;;;;;;;5038839;28;20054;-62
2024/02/18 03:35:12;;;;;;;7.40;3.75;;;;;;;;;;5038998;28;20040;-61
2024/02/18 03:37:38;;;;;;;7.82;4.50;;;;;;;;;;5031222;28;20417;-61
2024/02/18 03:40:06;;;;;;;6.13;3.90;;;;;;;;;;5035798;28;20096;-62
2024/02/18 03:42:32;;;;;;;8.52;4.13;;;;;;;;;;5038981;28;20496;-60
2024/02/18 03:44:58;;;;;;;8.50;4.10;;;;;;;;;;5037257;28;20049;-63
2024/02/18 03:47:24;;;;;;;6.93;4.70;;;;;;;;;;5041388;28;20037;-62
2024/02/18 03:49:50;;;;;;;7.75;4.60;;;;;;;;;;5043069;28;20286;-61
2024/02/18 03:52:16;;;;;;;7.22;4.57;;;;;;;;;;5039058;28;20061;-61
2024/02/18 03:54:42;;;;;;;10.13;5.50;;;;;;;;;;5035969;28;20491;-61
2024/02/18 03:57:08;;;;;;;8.00;5.15;;;;;;;;;;5039050;28;20048;-61
2024/02/18 03:59:35;;;;;;;8.20;5.10;;;;;;;;;;5041108;28;20048;-61
2024/02/18 04:02:01;;;;;;;8.68;5.43;;;;;;;;;;5037457;28;20044;-61
2024/02/18 04:04:27;;;;;;;11.00;6.00;;;;;;;;;;5034007;28;20033;-62
2024/02/18 04:06:53;;;;;;;10.57;6.35;;;;;;;;;;5041950;28;20049;-62
2024/02/18 04:09:20;;;;;;;10.88;6.55;;;;;;;;;;5041006;28;20041;-61
2024/02/18 04:11:46;;;;;;;12.00;6.35;;;;;;;;;;5035470;28;20056;-61
2024/02/18 04:14:12;;;;;;;12.60;7.30;;;;;;;;;;5038918;28;20053;-60
2024/02/18 04:16:38;;;;;;;14.05;7.38;;;;;;;;;;5038588;28;20055;-60
2024/02/18 04:19:06;;;;;;;14.23;7.60;;;;;;;;;;5037197;28;20496;-61
2024/02/18 04:21:32;;;;;;;11.20;6.88;;;;;;;;;;5041345;28;20048;-61
2024/02/18 04:23:58;;;;;;;10.95;6.60;;;;;;;;;;5038785;28;20037;-62
2024/02/18 04:26:24;;;;;;;11.48;6.68;;;;;;;;;;5036612;28;20029;-62
2024/02/18 04:28:50;;;;;;;12.07;6.75;;;;;;;;;;5043795;28;20480;-63
2024/02/18 04:31:17;;;;;;;12.88;6.97;;;;;;;;;;5039019;28;20041;-62
2024/02/18 04:33:43;;;;;;;10.75;6.20;;;;;;;;;;5039635;28;20389;-63
2024/02/18 04:36:11;;;;;;;12.15;6.45;;;;;;;;;;5039594;28;20056;-62
2024/02/18 04:38:37;;;;;;;13.07;7.25;;;;;;;;;;5040727;28;20060;-61
2024/02/18 04:41:03;;;;;;;11.90;6.68;;;;;;;;;;5041556;28;20049;-62
2024/02/18 04:43:29;;;;;;;12.30;7.50;;;;;;;;;;5040819;28;20400;-62
2024/02/18 04:45:55;;;;;;;13.15;6.80;;;;;;;;;;5041318;28;20048;-62
2024/02/18 04:48:22;;;;;;;11.70;6.88;;;;;;;;;;5034137;28;20048;-62
2024/02/18 04:50:48;;;;;;;11.23;6.43;;;;;;;;;;5043450;28;20025;-60
2024/02/18 04:53:14;;;;;;;11.70;7.10;;;;;;;;;;5033459;28;20041;-62
2024/02/18 04:55:40;;;;;;;13.02;6.75;;;;;;;;;;5042610;28;20378;-60
2024/02/18 04:58:06;;;;;;;10.38;6.65;;;;;;;;;;5042231;28;20037;-62
2024/02/18 05:00:32;;;;;;;12.50;7.03;;;;;;;;;;5037004;28;20037;-61
2024/02/18 05:02:58;;;;;;;11.65;6.07;;;;;;;;;;5037703;28;20029;-63
2024/02/18 05:05:25;;;;;;;11.82;6.43;;;;;;;;;;5039323;28;20535;-61
2024/02/18 05:07:52;;;;;;;11.43;6.53;;;;;;;;;;5043301;28;20028;-62
2024/02/18 05:10:18;;;;;;;13.23;6.55;;;;;;;;;;5037216;28;20419;-62
2024/02/18 05:12:44;;;;;;;10.57;6.30;;;;;;;;;;5034452;28;20056;-62
2024/02/18 05:15:11;;;;;;;15.77;6.53;;;;;;;;;;5036552;28;20041;-62
2024/02/18 05:17:37;;;;;;;11.40;6.65;;;;;;;;;;5039250;28;20037;-61
2024/02/18 05:20:09;;;;;;;12.73;7.20;;;;;;;;;;5039068;28;20032;-65
2024/02/18 05:22:41;;;;;;;12.63;6.93;;;;;;;;;;5035114;28;20121;-62
2024/02/18 05:25:07;;;;;;;10.90;6.47;;;;;;;;;;5041115;28;20075;-62
2024/02/18 05:27:34;;;;;;;11.90;6.30;;;;;;;;;;5034134;28;20033;-62
2024/02/18 05:30:00;;;;;;;10.10;6.38;;;;;;;;;;5042070;28;20043;-62
2024/02/18 05:32:26;;;;;;;9.93;5.72;;;;;;;;;;5035554;28;20160;-61
2024/02/18 05:34:52;;;;;;;10.73;5.47;;;;;;;;;;5020556;28;20037;-61
2024/02/18 05:37:18;;;;;;;13.98;6.82;;;;;;;;;;5035025;28;20345;-61
2024/02/18 05:39:44;;;;;;;12.15;6.57;;;;;;;;;;5037373;28;20412;-62
2024/02/18 05:42:10;;;;;;;13.32;6.38;;;;;;;;;;5034514;28;20048;-61
2024/02/18 05:44:36;;;;;;;14.10;6.50;;;;;;;;;;5039505;28;20705;-60
2024/02/18 05:47:03;;;;;;;9.98;5.90;;;;;;;;;;5040330;28;20056;-65
2024/02/18 05:49:29;;;;;;;12.68;6.93;;;;;;;;;;5040106;28;20041;-66
2024/02/18 05:51:55;;;;;;;13.55;7.30;;;;;;;;;;5036812;28;20041;-66
2024/02/18 05:54:23;;;;;;;15.00;6.75;;;;;;;;;;5039326;28;20072;-64
2024/02/18 05:56:49;;;;;;;13.75;6.07;;;;;;;;;;5035422;28;20029;-63
2024/02/18 05:59:15;;;;;;;12.60;6.55;;;;;;;;;;5037035;28;20049;-66
2024/02/18 06:01:42;;;;;;;16.80;7.28;;;;;;;;;;5039195;28;20067;-66
2024/02/18 06:04:08;;;;;;;11.32;6.43;;;;;;;;;;5035558;28;20469;-66
2024/02/18 06:06:34;;;;;;;14.50;7.00;;;;;;;;;;5031406;28;20046;-65
2024/02/18 06:09:00;;;;;;;10.05;5.85;;;;;;;;;;5036925;28;20385;-62
2024/02/18 06:11:26;;;;;;;13.27;6.53;;;;;;;;;;5033566;28;20155;-62
2024/02/18 06:13:52;;;;;;;17.10;7.18;;;;;;;;;;5033883;28;20516;-62
2024/02/18 06:16:19;;;;;;;12.40;6.35;;;;;;;;;;5038648;28;20603;-65
2024/02/18 06:18:45;;;;;;;12.63;6.82;;;;;;;;;;5039552;28;20555;-63
2024/02/18 06:21:20;;;;;;;12.88;6.65;;;;;;;;;;5041745;28;20040;-63
2024/02/18 06:23:47;;;;;;;10.18;6.38;;;;;;;;;;5031523;28;20041;-62
2024/02/18 06:26:15;;;;;;;10.38;6.00;;;;;;;;;;5036445;28;20464;-63
2024/02/18 06:28:42;;;;;;;11.48;5.88;;;;;;;;;;5036638;28;20050;-63
2024/02/18 06:31:08;;;;;;;14.68;6.57;;;;;;;;;;5034764;28;20048;-64
2024/02/18 06:33:34;;;;;;;12.98;5.95;;;;;;;;;;5037446;28;20045;-63
2024/02/18 06:36:00;;;;;;;10.75;5.88;;;;;;;;;;5036435;28;20041;-63
2024/02/18 06:38:26;;;;;;;12.32;6.50;;;;;;;;;;5036705;28;20346;-63
2024/02/18 06:40:53;;;;;;;10.98;5.38;;;;;;;;;;5038763;28;20040;-62
2024/02/18 06:43:19;;;;;;;10.60;5.57;;;;;;;;;;5037189;28;20037;-63
2024/02/18 06:45:45;;;;;;;12.23;5.53;;;;;;;;;;5038971;28;20037;-63
2024/02/18 06:48:11;;;;;;;9.77;5.72;;;;;;;;;;5032070;28;20465;-63
2024/02/18 06:50:37;;;;;;;12.13;6.43;;;;;;;;;;5038314;28;20049;-63
2024/02/18 06:53:05;;;;;;;14.70;5.40;;;;;;;;;;5033031;28;20065;-63
2024/02/18 06:55:31;;;;;;;10.32;5.97;;;;;;;;;;5038269;28;20025;-63
2024/02/18 06:57:57;;;;;;;11.02;5.35;;;;;;;;;;5038040;28;20053;-62
2024/02/18 07:00:23;;;;;;;10.23;5.55;;;;;;;;;;5033035;28;20416;-62
2024/02/18 07:02:49;;;;;;;9.07;4.93;;;;;;;;;;5032726;28;20029;-63
2024/02/18 07:05:15;;;;;;;9.50;4.85;;;;;;;;;;5036913;28;20477;-63
2024/02/18 07:07:41;;;;;;;9.02;5.20;;;;;;;;;;5035039;28;20037;-63
2024/02/18 07:10:07;;;;;;;8.90;4.50;;;;;;;;;;5037728;28;20520;-62
2024/02/18 07:12:34;;;;;;;7.60;3.97;;;;;;;;;;5039270;28;20053;-64
2024/02/18 07:15:00;;;;;;;9.13;4.50;;;;;;;;;;5043496;28;20045;-62
2024/02/18 07:17:26;;;;;;;7.47;3.90;;;;;;;;;;5042393;28;20358;-63
2024/02/18 07:19:52;;;;;;;7.22;4.40;;;;;;;;;;5044896;28;20037;-62
2024/02/18 07:22:18;;;;;;;7.15;4.40;;;;;;;;;;5040234;28;20049;-63
2024/02/18 07:24:47;;;;;;;7.45;4.40;;;;;;;;;;5040530;28;20033;-62
2024/02/18 07:27:13;;;;;;;10.47;5.00;;;;;;;;;;5042610;28;20033;-62
2024/02/18 07:29:39;;;;;;;9.80;4.82;;;;;;;;;;5041852;28;20050;-61
2024/02/18 07:32:06;;;;;;;8.23;5.05;;;;;;;;;;5044294;28;20146;-62
2024/02/18 07:34:32;;;;;;;7.93;5.43;;;;;;;;;;5043447;28;20322;-62
2024/02/18 07:36:58;;;;;;;8.60;5.43;;;;;;;;;;5038272;28;20025;-63
2024/02/18 07:39:24;;;;;;;8.95;5.20;;;;;;;;;;5042226;28;20060;-63
2024/02/18 07:41:50;;;;;;;10.50;5.00;;;;;;;;;;5045873;28;20056;-63
2024/02/18 07:44:16;;;;;;;8.48;4.28;;;;;;;;;;5034798;28;20029;-64
2024/02/18 07:46:43;;;;;;;9.82;4.40;;;;;;;;;;5041631;28;20056;-63
2024/02/18 07:49:10;;;;;;;6.97;4.25;;;;;;;;;;5036387;28;20046;-64
2024/02/18 07:51:36;;;;;;;6.90;4.30;;;;;;;;;;5040564;28;20107;-63
2024/02/18 07:54:03;;;;;;;8.40;4.18;;;;;;;;;;5037522;28;20049;-62
2024/02/18 07:56:29;;;;;;;12.55;6.63;;;;;;;;;;5040888;28;20346;-61
2024/02/18 07:58:55;;;;;;;11.07;6.72;;;;;;;;;;5041990;28;20040;-63
2024/02/18 08:01:21;;;;;;;10.32;5.75;;;;;;;;;;5038236;28;20060;-64
2024/02/18 08:03:47;;;;;;;7.75;5.00;;;;;;;;;;5036527;28;20450;-64
2024/02/18 08:06:13;;;;;;;8.55;5.80;;;;;;;;;;5052048;28;20045;-63
2024/02/18 08:08:39;;;;;;;7.18;4.40;;;;;;;;;;5034628;28;20538;-65
2024/02/18 08:11:05;;;;;;;7.22;4.30;;;;;;;;;;5034844;28;20041;-64
2024/02/18 08:13:32;;;;;;;8.32;5.05;;;;;;;;;;5028839;28;20037;-63
2024/02/18 08:15:58;;;;;;;8.32;5.20;;;;;;;;;;5035498;28;20042;-63
2024/02/18 08:18:24;;;;;;;7.80;5.25;;;;;;;;;;5041251;28;20033;-63
2024/02/18 08:20:51;;;;;;;9.57;6.32;;;;;;;;;;5042952;28;20067;-62
2024/02/18 08:23:17;;;;;;;16.05;9.55;;;;;;;;;;5040248;28;20025;-64
2024/02/18 08:25:43;;;;;;;22.13;12.60;;;;;;;;;;5039817;28;20040;-63
2024/02/18 08:28:10;;;;;;;19.10;10.52;;;;;;;;;;5040533;28;20043;-63
2024/02/18 08:30:37;;;;;;;23.48;11.70;;;;;;;;;;5035899;28;20044;-63
2024/02/18 08:33:03;;;;;;;16.88;9.98;;;;;;;;;;5040227;28;20401;-63
2024/02/18 08:35:29;;;;;;;16.35;10.05;;;;;;;;;;5035469;28;20489;-63
2024/02/18 08:37:55;;;;;;;16.65;9.98;;;;;;;;;;5028612;28;20041;-64
2024/02/18 08:40:21;;;;;;;23.20;8.30;;;;;;;;;;5026324;28;20049;-62
2024/02/18 08:42:47;;;;;;;15.73;10.48;;;;;;;;;;5029651;28;20045;-62
2024/02/18 08:45:14;;;;;;;18.17;10.90;;;;;;;;;;5023870;28;20458;-63
2024/02/18 08:47:40;;;;;;;24.38;11.73;;;;;;;;;;5034432;28;20062;-63
2024/02/18 08:50:07;;;;;;;19.20;11.85;;;;;;;;;;5026148;28;20037;-64
2024/02/18 08:52:33;;;;;;;17.95;10.60;;;;;;;;;;5031254;28;20041;-65
2024/02/18 08:54:59;;;;;;;20.92;11.25;;;;;;;;;;5027983;28;20122;-64
2024/02/18 08:57:25;;;;;;;21.77;12.02;;;;;;;;;;5028184;28;20029;-63
2024/02/18 08:59:52;;;;;;;22.55;12.93;;;;;;;;;;5022286;28;20390;-64
2024/02/18 09:02:18;;;;;;;18.33;10.32;;;;;;;;;;5021401;28;20049;-63
2024/02/18 09:04:45;;;;;;;16.60;9.43;;;;;;;;;;5031253;28;20037;-64
2024/02/18 09:07:11;;;;;;;15.73;9.32;;;;;;;;;;5045063;28;20058;-64
2024/02/18 09:09:38;;;;;;;14.35;9.43;;;;;;;;;;5033354;28;20404;-63
2024/02/18 09:12:04;;;;;;;18.80;10.00;;;;;;;;;;5014377;28;20041;-63
2024/02/18 09:14:31;;;;;;;13.70;9.25;;;;;;;;;;5033599;28;20063;-62
2024/02/18 09:16:57;;;;;;;14.57;9.32;;;;;;;;;;5034373;28;20049;-63
2024/02/18 09:19:24;;;;;;;15.20;9.40;;;;;;;;;;5028636;28;20037;-64
2024/02/18 09:21:50;;;;;;;15.45;10.02;;;;;;;;;;5029763;28;20045;-63
2024/02/18 09:24:16;;;;;;;15.23;9.52;;;;;;;;;;5020410;28;20033;-62
2024/02/18 09:26:42;;;;;;;16.00;10.70;;;;;;;;;;5027216;28;20049;-63
2024/02/18 09:29:09;;;;;;;18.45;10.20;;;;;;;;;;5021240;28;20045;-62
2024/02/18 09:31:36;;;;;;;14.98;9.27;;;;;;;;;;5028175;28;20041;-62
2024/02/18 09:34:02;;;;;;;15.25;9.60;;;;;;;;;;5033307;28;20457;-63
2024/02/18 09:36:28;;;;;;;16.42;8.95;;;;;;;;;;5030407;28;20033;-62
2024/02/18 09:38:55;;;;;;;14.23;8.77;;;;;;;;;;5037900;28;20037;-61
2024/02/18 09:41:23;;;;;;;14.60;9.05;;;;;;;;;;5034922;28;20037;-63
2024/02/18 09:43:51;;;;;;;13.82;9.10;;;;;;;;;;5040827;28;20029;-61
2024/02/18 09:46:20;;;;;;;15.02;9.27;;;;;;;;;;5032942;28;20408;-62
2024/02/18 09:48:47;;;;;;;14.63;9.07;;;;;;;;;;5032559;28;20404;-62
2024/02/18 09:51:15;;;;;;;20.17;12.23;;;;;;;;;;5026882;28;20116;-62
2024/02/18 09:53:41;;;;;;;16.58;9.50;;;;;;;;;;5034117;28;20045;-62
2024/02/18 09:56:07;;;;;;;13.30;8.52;;;;;;;;;;5025979;28;20038;-62
2024/02/18 09:58:34;;;;;;;4.95;3.00;;;;;;;;;;5029820;28;20048;-62
2024/02/18 10:01:01;;;;;;;3.70;2.10;;;;;;;;;;5028525;28;20044;-61
2024/02/18 10:03:27;;;;;;;4.38;2.63;;;;;;;;;;5024331;28;20033;-62
2024/02/18 10:05:54;;;;;;;12.02;2.42;;;;;;;;;;5025237;28;20045;-62
2024/02/18 10:08:20;;;;;;;2.95;2.00;;;;;;;;;;5025303;28;20029;-62
2024/02/18 10:10:46;;;;;;;4.05;2.35;;;;;;;;;;5018799;28;20053;-62
2024/02/18 10:13:12;;;;;;;3.28;2.17;;;;;;;;;;5021483;28;20033;-62
2024/02/18 10:15:39;;;;;;;2.03;1.80;;;;;;;;;;5028300;28;20050;-62
2024/02/18 10:18:09;;;;;;;2.63;2.00;;;;;;;;;;5027069;28;20125;-61
2024/02/18 10:20:36;;;;;;;4.10;1.85;;;;;;;;;;5025929;28;20401;-62
2024/02/18 10:23:03;;;;;;;2.35;2.00;;;;;;;;;;5020512;28;20488;-61
2024/02/18 10:25:31;;;;;;;2.13;1.70;;;;;;;;;;5027663;28;20045;-62
2024/02/18 10:27:58;;;;;;;3.92;1.85;;;;;;;;;;5030933;28;20052;-62
2024/02/18 10:30:24;;;;;;;4.55;2.10;;;;;;;;;;5028058;28;20041;-64
2024/02/18 10:32:50;;;;;;;4.18;1.88;;;;;;;;;;5029043;28;20049;-65
2024/02/18 10:35:17;;;;;;;3.58;1.80;;;;;;;;;;5036997;28;20049;-64
2024/02/18 10:37:43;;;;;;;2.55;1.70;;;;;;;;;;5036564;28;20029;-63
2024/02/18 10:40:13;;;;;;;3.88;2.10;;;;;;;;;;5040147;28;20457;-63
2024/02/18 10:42:44;;;;;;;2.80;1.98;;;;;;;;;;5037689;28;20037;-63
2024/02/18 10:45:12;;;;;;;3.30;2.58;;;;;;;;;;5035015;28;20045;-62
2024/02/18 10:47:51;;;;;;;3.65;2.60;;;;;;;;;;5037569;28;20033;-63
2024/02/18 10:50:17;;;;;;;3.00;2.70;;;;;;;;;;5038924;28;20041;-63
2024/02/18 10:52:46;;;;;;;3.65;2.50;;;;;;;;;;5028670;28;20034;-64
2024/02/18 10:55:28;;;;;;;2.75;2.42;;;;;;;;;;5030958;28;20050;-62
2024/02/18 10:58:15;;;;;;;4.32;2.53;;;;;;;;;;5033965;28;20052;-63
2024/02/18 11:00:45;;;;;;;6.13;3.10;;;;;;;;;;5037353;28;20061;-64
2024/02/18 11:03:25;;;;;;;3.42;2.50;;;;;;;;;;5034974;28;20033;-62
2024/02/18 11:05:51;;;;;;;3.05;2.15;;;;;;;;;;5032984;28;20136;-62
2024/02/18 11:08:18;;;;;;;5.38;2.35;;;;;;;;;;5038956;28;20094;-62
2024/02/18 11:10:45;;;;;;;4.32;2.53;;;;;;;;;;5039115;28;20059;-63
2024/02/18 11:13:13;;;;;;;4.15;2.17;;;;;;;;;;5037990;28;20060;-63
2024/02/18 11:15:40;;;;;;;4.18;2.60;;;;;;;;;;5030744;28;20147;-63
2024/02/18 11:18:08;;;;;;;6.30;2.95;;;;;;;;;;5033922;28;20113;-62
2024/02/18 11:20:35;;;;;;;3.67;2.73;;;;;;;;;;5029123;28;20050;-63
2024/02/18 11:23:02;;;;;;;5.55;4.13;;;;;;;;;;5033712;28;20471;-63
2024/02/18 11:25:29;;;;;;;5.45;3.05;;;;;;;;;;5033191;28;20049;-62
2024/02/18 11:27:55;;;;;;;5.40;3.30;;;;;;;;;;5031792;28;20048;-62
2024/02/18 11:30:21;;;;;;;5.63;3.60;;;;;;;;;;5031964;28;20044;-62
2024/02/18 11:32:47;;;;;;;6.25;3.45;;;;;;;;;;5031766;28;20041;-62
2024/02/18 11:35:15;;;;;;;6.05;4.47;;;;;;;;;;5039395;28;20040;-62
2024/02/18 11:37:41;;;;;;;6.40;3.20;;;;;;;;;;5028707;28;20037;-62
2024/02/18 11:40:17;;;;;;;6.35;3.70;;;;;;;;;;5033051;28;20115;-64
2024/02/18 11:42:46;;;;;;;5.90;3.90;;;;;;;;;;5029617;28;20045;-66
2024/02/18 11:45:20;;;;;;;5.53;3.60;;;;;;;;;;5024296;28;20350;-64
2024/02/18 11:47:48;;;;;;;6.70;4.68;;;;;;;;;;5030237;28;20413;-64
2024/02/18 11:50:15;;;;;;;5.55;3.63;;;;;;;;;;5024058;28;20449;-63
2024/02/18 11:52:45;;;;;;;5.70;4.00;;;;;;;;;;5041830;23;20034;-61
2024/02/18 11:55:21;;;;;;;8.65;5.75;;;;;;;;;;5007128;28;20054;-60
2024/02/18 11:57:48;;;;;;;9.70;6.60;;;;;;;;;;5021620;28;20234;-62
2024/02/18 12:00:19;;;;;;;91.03;32.53;;;;;;;;;;5003070;28;20034;-63
2024/02/18 12:02:50;;;;;;;23.58;11.70;;;;;;;;;;5019736;28;20056;-62
2024/02/18 12:05:17;;;;;;;11.20;7.60;;;;;;;;;;5004622;28;20030;-62
2024/02/18 12:07:46;;;;;;;9.20;6.60;;;;;;;;;;5001190;28;20049;-62
2024/02/18 12:10:13;;;;;;;15.02;7.18;;;;;;;;;;5005818;28;20052;-62
2024/02/18 12:12:40;;;;;;;8.77;6.25;;;;;;;;;;5006407;28;20713;-63
2024/02/18 12:15:07;;;;;;;11.07;7.45;;;;;;;;;;5001280;28;20046;-63
2024/02/18 12:17:33;;;;;;;14.68;7.60;;;;;;;;;;5000062;28;20049;-62
2024/02/18 12:19:59;;;;;;;14.25;9.15;;;;;;;;;;5008075;28;20042;-65
2024/02/18 12:22:27;;;;;;;15.80;9.88;;;;;;;;;;5000390;28;20049;-62
2024/02/18 12:24:56;;;;;;;13.55;8.82;;;;;;;;;;5010283;28;20050;-62
2024/02/18 12:27:22;;;;;;;13.45;8.05;;;;;;;;;;5010880;28;20616;-62
2024/02/18 12:29:53;;;;;;;15.88;9.93;;;;;;;;;;5013594;28;20052;-63
2024/02/18 12:32:20;;;;;;;25.15;13.93;;;;;;;;;;5004888;28;20038;-62
2024/02/18 12:34:48;;;;;;;19.88;11.95;;;;;;;;;;5010228;28;20045;-63
2024/02/18 12:37:15;;;;;;;17.97;10.27;;;;;;;;;;5012010;28;20029;-63
2024/02/18 12:39:41;;;;;;;13.90;8.73;;;;;;;;;;5015352;28;20311;-64
2024/02/18 12:42:07;;;;;;;13.35;9.07;;;;;;;;;;5012578;28;20041;-63
2024/02/18 12:44:35;;;;;;;14.85;8.50;;;;;;;;;;5014787;28;20041;-62
2024/02/18 12:47:03;;;;;;;12.98;9.48;;;;;;;;;;5014455;28;20481;-62
2024/02/18 12:49:32;;;;;;;11.40;8.52;;;;;;;;;;5007000;28;20046;-62
2024/02/18 12:52:03;;;;;;;11.50;8.00;;;;;;;;;;4989811;28;20045;-63
2024/02/18 12:54:29;;;;;;;10.40;7.78;;;;;;;;;;5005772;28;20041;-62
2024/02/18 12:56:56;;;;;;;13.02;8.13;;;;;;;;;;5011658;28;20044;-62
2024/02/18 12:59:22;;;;;;;10.70;7.97;;;;;;;;;;5010944;28;20057;-63
2024/02/18 13:01:49;;;;;;;12.35;8.07;;;;;;;;;;5004797;28;20049;-63
2024/02/18 13:04:18;;;;;;;11.45;7.32;;;;;;;;;;5010798;28;20033;-62
2024/02/18 13:06:44;;;;;;;13.93;7.72;;;;;;;;;;5011040;28;20401;-62
2024/02/18 13:09:26;;;;;;;13.63;7.65;;;;;;;;;;5014585;28;20034;-63
2024/02/18 13:11:52;;;;;;;11.43;7.18;;;;;;;;;;5002540;28;20044;-61
2024/02/18 13:14:18;;;;;;;12.77;8.40;;;;;;;;;;5002787;28;20036;-62
2024/02/18 13:16:45;;;;;;;13.43;7.82;;;;;;;;;;5003916;28;20493;-63
2024/02/18 13:19:12;;;;;;;12.43;7.90;;;;;;;;;;5005241;28;20053;-63
2024/02/18 13:21:39;;;;;;;13.70;8.43;;;;;;;;;;5005462;28;20051;-61
2024/02/18 13:24:05;;;;;;;14.93;8.77;;;;;;;;;;5007690;28;20030;-62
2024/02/18 13:26:32;;;;;;;12.60;8.60;;;;;;;;;;5010950;28;20049;-63
2024/02/18 13:28:59;;;;;;;14.60;8.63;;;;;;;;;;5008205;28;20504;-63
2024/02/18 13:31:27;;;;;;;14.50;8.85;;;;;;;;;;5005868;28;20047;-62
2024/02/18 13:33:53;;;;;;;14.02;8.85;;;;;;;;;;5006707;28;20034;-62
2024/02/18 13:36:22;;;;;;;13.55;8.25;;;;;;;;;;5009777;28;20135;-62
2024/02/18 13:38:48;;;;;;;11.70;8.65;;;;;;;;;;5010892;28;20037;-62
2024/02/18 13:41:14;;;;;;;14.98;9.63;;;;;;;;;;5010147;28;20060;-61
2024/02/18 13:43:41;;;;;;;14.70;9.07;;;;;;;;;;5007565;28;20054;-62
2024/02/18 13:46:07;;;;;;;13.32;9.27;;;;;;;;;;5008718;28;20045;-62
2024/02/18 13:48:35;;;;;;;13.88;9.32;;;;;;;;;;5010764;28;20494;-62
2024/02/18 13:51:01;;;;;;;14.88;9.50;;;;;;;;;;5005867;28;20398;-63
2024/02/18 13:53:27;;;;;;;14.50;9.77;;;;;;;;;;5008627;28;20426;-63
2024/02/18 13:55:53;;;;;;;12.95;9.15;;;;;;;;;;5008615;28;20045;-62
2024/02/18 13:58:19;;;;;;;11.85;9.13;;;;;;;;;;5007020;28;20033;-62
2024/02/18 14:00:46;;;;;;;12.57;9.07;;;;;;;;;;5008633;28;20417;-62
2024/02/18 14:03:12;;;;;;;12.35;8.48;;;;;;;;;;5007866;28;20046;-62
2024/02/18 14:05:39;;;;;;;13.98;9.30;;;;;;;;;;5012160;28;20050;-62
2024/02/18 14:08:05;;;;;;;13.48;9.77;;;;;;;;;;5004520;28;20038;-62
2024/02/18 14:10:31;;;;;;;14.40;9.07;;;;;;;;;;5007255;28;20034;-63
2024/02/18 14:12:58;;;;;;;13.10;8.95;;;;;;;;;;5003661;28;20417;-62
2024/02/18 14:15:25;;;;;;;15.32;9.73;;;;;;;;;;5007247;28;20038;-62
2024/02/18 14:17:58;;;;;;;14.00;9.60;;;;;;;;;;5005592;28;20497;-62
2024/02/18 14:20:25;;;;;;;16.17;8.75;;;;;;;;;;5008329;28;20041;-62
2024/02/18 14:22:51;;;;;;;14.65;9.70;;;;;;;;;;5009594;28;20061;-62
2024/02/18 14:25:20;;;;;;;13.43;9.63;;;;;;;;;;5008563;28;20052;-62
2024/02/18 14:27:50;;;;;;;16.48;9.27;;;;;;;;;;5007753;28;20413;-62
2024/02/18 14:30:17;;;;;;;14.93;9.45;;;;;;;;;;5002288;28;20033;-62
2024/02/18 14:32:44;;;;;;;16.70;10.43;;;;;;;;;;5012065;28;20061;-63